createdAt,value
2022-11-15T00:02:02.313Z,21.29
2022-11-15T00:04:29.108Z,21.30
2022-11-15T00:06:55.829Z,21.29
2022-11-15T00:09:22.504Z,21.28
2022-11-15T00:11:49.119Z,21.28
2022-11-15T00:14:15.725Z,21.28
2022-11-15T00:16:42.458Z,21.28
2022-11-15T00:19:09.128Z,21.28
2022-11-15T00:21:35.890Z,21.26
2022-11-15T00:24:02.629Z,21.26
2022-11-15T00:26:29.213Z,21.24
2022-11-15T00:28:55.943Z,21.24
2022-11-15T00:31:22.629Z,21.24
2022-11-15T00:33:49.237Z,21.24
2022-11-15T00:36:15.950Z,21.23
2022-11-15T00:38:42.661Z,21.21
2022-11-15T00:41:10.351Z,21.20
2022-11-15T00:43:37.548Z,21.19
2022-11-15T00:46:04.280Z,21.19
2022-11-15T00:48:31.465Z,21.19
2022-11-15T00:50:58.662Z,21.18
2022-11-15T00:53:25.305Z,21.17
2022-11-15T00:55:51.928Z,21.16
2022-11-15T00:58:18.557Z,21.15
2022-11-15T01:00:45.282Z,21.15
2022-11-15T01:03:11.975Z,21.15
2022-11-15T01:05:38.979Z,21.14
2022-11-15T01:08:05.872Z,21.11
2022-11-15T01:10:32.531Z,21.12
2022-11-15T01:12:59.583Z,21.11
2022-11-15T01:15:26.515Z,21.09
2022-11-15T01:17:53.139Z,21.09
2022-11-15T01:20:20.083Z,21.08
2022-11-15T01:22:48.468Z,21.06
2022-11-15T01:25:15.519Z,21.07
2022-11-15T01:27:42.176Z,21.06
2022-11-15T01:30:12.537Z,21.05
2022-11-15T01:32:39.212Z,21.05
2022-11-15T01:35:05.936Z,21.05
2022-11-15T01:37:32.566Z,21.05
2022-11-15T01:39:59.286Z,21.04
2022-11-15T01:42:25.897Z,21.02
2022-11-15T01:44:53.090Z,21.00
2022-11-15T01:47:26.224Z,21.00
2022-11-15T01:50:04.108Z,20.99
2022-11-15T01:52:32.654Z,20.98
2022-11-15T01:55:05.045Z,20.99
2022-11-15T01:57:31.984Z,20.98
2022-11-15T01:59:59.764Z,20.96
2022-11-15T02:02:26.760Z,20.95
2022-11-15T02:04:53.353Z,20.96
2022-11-15T02:07:21.196Z,20.94
2022-11-15T02:09:47.968Z,20.93
2022-11-15T02:12:16.785Z,20.92
2022-11-15T02:14:46.924Z,20.91
2022-11-15T02:17:27.627Z,20.91
2022-11-15T02:19:54.230Z,20.91
2022-11-15T02:22:35.944Z,20.90
2022-11-15T02:25:02.629Z,20.89
2022-11-15T02:27:43.272Z,20.89
2022-11-15T02:30:15.746Z,20.88
2022-11-15T02:32:47.020Z,20.84
2022-11-15T02:35:19.423Z,20.85
2022-11-15T02:37:50.419Z,20.85
2022-11-15T02:40:40.238Z,20.83
2022-11-15T02:43:34.418Z,20.85
2022-11-15T02:46:10.797Z,20.84
2022-11-15T02:48:38.131Z,20.83
2022-11-15T02:51:05.275Z,20.82
2022-11-15T02:53:32.332Z,20.83
2022-11-15T02:55:59.749Z,20.82
2022-11-15T02:58:45.104Z,20.78
2022-11-15T03:01:11.762Z,20.80
2022-11-15T03:03:44.433Z,20.77
2022-11-15T03:06:20.659Z,20.77
2022-11-15T03:08:50.016Z,20.75
2022-11-15T03:11:18.099Z,20.75
2022-11-15T03:14:03.793Z,20.72
2022-11-15T03:16:49.234Z,20.73
2022-11-15T03:19:23.494Z,20.73
2022-11-15T03:21:50.451Z,20.72
2022-11-15T03:24:24.696Z,20.71
2022-11-15T03:26:54.034Z,20.70
2022-11-15T03:29:23.497Z,20.69
2022-11-15T03:31:56.056Z,20.68
2022-11-15T03:34:25.818Z,20.67
2022-11-15T03:36:53.254Z,20.66
2022-11-15T03:39:20.983Z,20.66
2022-11-15T03:42:05.524Z,20.68
2022-11-15T03:44:51.975Z,20.65
2022-11-15T03:47:24.916Z,20.64
2022-11-15T03:49:53.958Z,20.63
2022-11-15T03:52:21.507Z,20.63
2022-11-15T03:54:55.880Z,20.64
2022-11-15T03:57:22.971Z,20.63
2022-11-15T03:59:49.782Z,20.61
2022-11-15T04:02:16.544Z,20.60
2022-11-15T04:04:43.194Z,20.59
2022-11-15T04:07:09.812Z,20.62
2022-11-15T04:09:57.073Z,20.59
2022-11-15T04:12:32.000Z,20.62
2022-11-15T04:15:08.606Z,20.61
2022-11-15T04:17:36.615Z,20.60
2022-11-15T04:20:22.918Z,20.58
2022-11-15T04:23:07.977Z,20.60
2022-11-15T04:25:34.642Z,20.58
2022-11-15T04:28:01.357Z,20.58
2022-11-15T04:30:28.200Z,20.56
2022-11-15T04:32:54.906Z,20.57
2022-11-15T04:35:21.683Z,20.56
2022-11-15T04:37:49.541Z,20.55
2022-11-15T04:40:16.437Z,20.55
2022-11-15T04:42:43.800Z,20.54
2022-11-15T04:45:11.474Z,20.55
2022-11-15T04:47:38.091Z,20.54
2022-11-15T04:50:05.338Z,20.54
2022-11-15T04:52:36.293Z,20.53
2022-11-15T04:55:07.997Z,20.52
2022-11-15T04:57:34.940Z,20.52
2022-11-15T05:00:01.767Z,20.52
2022-11-15T05:02:56.580Z,20.51
2022-11-15T05:05:23.282Z,20.53
2022-11-15T05:07:49.917Z,20.51
2022-11-15T05:10:16.653Z,20.51
2022-11-15T05:12:43.456Z,20.51
2022-11-15T05:15:10.378Z,20.49
2022-11-15T05:17:37.056Z,20.50
2022-11-15T05:20:03.808Z,20.49
2022-11-15T05:22:30.430Z,20.49
2022-11-15T05:24:57.044Z,20.48
2022-11-15T05:27:23.617Z,20.48
2022-11-15T05:29:50.259Z,20.47
2022-11-15T05:32:17.928Z,20.46
2022-11-15T05:34:44.671Z,20.47
2022-11-15T05:37:11.427Z,20.46
2022-11-15T05:39:39.147Z,20.44
2022-11-15T05:42:09.629Z,20.45
2022-11-15T05:44:37.447Z,20.45
2022-11-15T05:47:04.887Z,20.45
2022-11-15T05:49:35.959Z,20.44
2022-11-15T05:52:04.622Z,20.42
2022-11-15T05:54:32.296Z,20.40
2022-11-15T05:56:58.932Z,20.41
2022-11-15T05:59:25.844Z,20.42
2022-11-15T06:01:52.541Z,20.41
2022-11-15T06:04:19.227Z,20.40
2022-11-15T06:06:45.972Z,20.39
2022-11-15T06:09:12.893Z,20.38
2022-11-15T06:11:39.489Z,20.39
2022-11-15T06:14:06.294Z,20.41
2022-11-15T06:16:32.908Z,20.45
2022-11-15T06:18:59.690Z,20.46
2022-11-15T06:21:28.983Z,20.49
2022-11-15T06:23:55.643Z,20.52
2022-11-15T06:26:22.390Z,20.55
2022-11-15T06:28:49.062Z,20.58
2022-11-15T06:31:15.703Z,20.63
2022-11-15T06:33:42.517Z,20.67
2022-11-15T06:36:16.101Z,20.71
2022-11-15T06:38:44.492Z,20.76
2022-11-15T06:41:11.984Z,20.82
2022-11-15T06:43:39.435Z,20.86
2022-11-15T06:46:06.491Z,20.91
2022-11-15T06:48:33.676Z,20.96
2022-11-15T06:51:01.578Z,21.00
2022-11-15T06:53:29.198Z,21.05
2022-11-15T06:55:59.340Z,21.10
2022-11-15T06:58:26.002Z,21.16
2022-11-15T07:00:52.622Z,21.19
2022-11-15T07:03:19.521Z,21.26
2022-11-15T07:05:56.089Z,21.32
2022-11-15T07:08:23.348Z,21.36
2022-11-15T07:10:50.023Z,21.40
2022-11-15T07:13:16.722Z,21.45
2022-11-15T07:15:43.401Z,21.49
2022-11-15T07:18:10.046Z,21.54
2022-11-15T07:20:36.653Z,21.58
2022-11-15T07:23:04.068Z,21.60
2022-11-15T07:25:30.791Z,21.64
2022-11-15T07:27:58.267Z,21.66
2022-11-15T07:30:25.581Z,21.69
2022-11-15T07:33:01.160Z,21.71
2022-11-15T07:35:28.521Z,21.72
2022-11-15T07:37:58.911Z,21.74
2022-11-15T07:40:26.457Z,21.77
2022-11-15T07:43:04.525Z,21.79
2022-11-15T07:45:31.227Z,21.79
2022-11-15T07:47:58.295Z,21.81
2022-11-15T07:50:25.019Z,21.82
2022-11-15T07:52:58.464Z,21.66
2022-11-15T07:55:26.012Z,21.66
2022-11-15T07:57:52.730Z,21.66
2022-11-15T08:00:19.506Z,21.64
2022-11-15T08:02:47.243Z,21.64
2022-11-15T08:05:14.195Z,21.64
2022-11-15T08:07:45.508Z,21.64
2022-11-15T08:10:13.117Z,21.63
2022-11-15T08:12:39.757Z,21.63
2022-11-15T08:15:06.796Z,21.63
2022-11-15T08:17:35.173Z,21.60
2022-11-15T08:20:01.753Z,21.61
2022-11-15T08:22:28.478Z,21.60
2022-11-15T08:24:55.073Z,21.64
2022-11-15T08:27:21.756Z,21.67
2022-11-15T08:29:51.198Z,21.70
2022-11-15T08:32:19.060Z,21.68
2022-11-15T08:34:45.918Z,21.68
2022-11-15T08:37:12.543Z,21.69
2022-11-15T08:39:39.186Z,21.70
2022-11-15T08:42:05.802Z,21.72
2022-11-15T08:44:32.443Z,21.73
2022-11-15T08:46:59.138Z,21.75
2022-11-15T08:49:25.893Z,21.76
2022-11-15T08:51:52.699Z,21.77
2022-11-15T08:54:19.380Z,21.78
2022-11-15T08:56:46.057Z,21.79
2022-11-15T08:59:12.676Z,21.80
2022-11-15T09:01:39.303Z,21.81
2022-11-15T09:04:06.228Z,21.82
2022-11-15T09:06:32.873Z,21.82
2022-11-15T09:08:59.572Z,21.81
2022-11-15T09:11:27.663Z,21.82
2022-11-15T09:13:54.310Z,21.82
2022-11-15T09:16:22.357Z,21.82
2022-11-15T09:18:49.116Z,21.82
2022-11-15T09:21:15.750Z,21.83
2022-11-15T09:23:42.544Z,21.82
2022-11-15T09:26:09.248Z,21.83
2022-11-15T09:28:37.719Z,21.84
2022-11-15T09:31:05.613Z,21.82
2022-11-15T09:33:32.623Z,21.81
2022-11-15T09:36:03.394Z,21.80
2022-11-15T09:38:30.554Z,21.79
2022-11-15T09:41:12.894Z,21.80
2022-11-15T09:43:52.003Z,21.78
2022-11-15T09:46:19.152Z,21.78
2022-11-15T09:48:57.349Z,21.76
2022-11-15T09:51:48.056Z,21.76
2022-11-15T09:54:52.274Z,21.76
2022-11-15T09:57:19.788Z,21.75
2022-11-15T09:59:46.395Z,21.76
2022-11-15T10:02:25.168Z,21.74
2022-11-15T10:04:52.920Z,21.74
2022-11-15T10:07:27.099Z,21.73
2022-11-15T10:09:58.301Z,21.73
2022-11-15T10:12:26.712Z,21.72
2022-11-15T10:14:59.693Z,21.72
2022-11-15T10:17:33.703Z,21.71
2022-11-15T10:20:08.597Z,21.71
2022-11-15T10:23:01.237Z,21.70
2022-11-15T10:25:29.203Z,21.69
2022-11-15T10:28:04.952Z,21.68
2022-11-15T10:30:39.177Z,21.67
2022-11-15T10:33:13.232Z,21.65
2022-11-15T10:35:40.430Z,21.64
2022-11-15T10:38:08.654Z,21.63
2022-11-15T10:40:35.823Z,21.63
2022-11-15T10:43:11.402Z,21.62
2022-11-15T10:45:38.663Z,21.61
2022-11-15T10:48:24.750Z,21.61
2022-11-15T10:50:52.966Z,21.58
2022-11-15T10:53:31.963Z,21.58
2022-11-15T10:56:01.800Z,21.56
2022-11-15T10:58:42.970Z,21.55
2022-11-15T11:01:14.210Z,21.53
2022-11-15T11:03:42.025Z,21.53
2022-11-15T11:06:14.386Z,21.52
2022-11-15T11:09:01.415Z,21.50
2022-11-15T11:11:47.756Z,21.49
2022-11-15T11:14:19.005Z,21.47
2022-11-15T11:17:06.346Z,21.47
2022-11-15T11:19:36.063Z,21.46
2022-11-15T11:22:07.113Z,21.46
2022-11-15T11:24:47.466Z,21.44
2022-11-15T11:27:29.203Z,21.43
2022-11-15T11:30:04.874Z,21.42
2022-11-15T11:32:55.092Z,21.41
2022-11-15T11:35:35.450Z,21.40
2022-11-15T11:38:37.388Z,21.39
2022-11-15T11:41:09.277Z,21.38
2022-11-15T11:43:47.854Z,21.36
2022-11-15T11:46:20.336Z,21.33
2022-11-15T11:48:52.976Z,21.32
2022-11-15T11:51:22.418Z,21.30
2022-11-15T11:53:53.279Z,21.31
2022-11-15T11:56:26.339Z,21.29
2022-11-15T11:58:54.863Z,21.27
2022-11-15T12:01:26.226Z,21.24
2022-11-15T12:04:02.695Z,21.23
2022-11-15T12:06:43.743Z,21.21
2022-11-15T12:09:16.509Z,21.19
2022-11-15T12:11:57.378Z,21.17
2022-11-15T12:14:26.823Z,21.16
2022-11-15T12:16:53.409Z,21.14
2022-11-15T12:19:20.111Z,21.13
2022-11-15T12:22:00.933Z,21.11
2022-11-15T12:24:41.903Z,21.10
2022-11-15T12:27:15.733Z,21.07
2022-11-15T12:29:50.818Z,21.06
2022-11-15T12:32:36.720Z,21.04
2022-11-15T12:35:04.674Z,21.02
2022-11-15T12:37:34.435Z,21.01
2022-11-15T12:40:07.181Z,21.00
2022-11-15T12:42:42.979Z,20.98
2022-11-15T12:45:45.206Z,20.97
2022-11-15T12:48:17.627Z,20.96
2022-11-15T12:50:54.628Z,20.93
2022-11-15T12:53:24.160Z,20.91
2022-11-15T12:56:05.820Z,20.89
2022-11-15T12:58:50.953Z,20.88
2022-11-15T13:01:36.404Z,20.88
2022-11-15T13:04:23.186Z,20.86
2022-11-15T13:06:50.969Z,20.85
2022-11-15T13:09:38.669Z,20.83
2022-11-15T13:12:08.702Z,20.82
2022-11-15T13:14:38.645Z,20.81
2022-11-15T13:17:20.595Z,20.79
2022-11-15T13:19:48.223Z,20.79
2022-11-15T13:22:33.950Z,20.78
2022-11-15T13:25:02.748Z,20.78
2022-11-15T13:27:29.978Z,20.77
2022-11-15T13:29:56.622Z,20.76
2022-11-15T13:32:23.402Z,20.76
2022-11-15T13:34:53.958Z,20.74
2022-11-15T13:37:23.414Z,20.75
2022-11-15T13:39:50.659Z,20.76
2022-11-15T13:42:18.761Z,20.75
2022-11-15T13:44:59.263Z,20.76
2022-11-15T13:47:30.120Z,20.74
2022-11-15T13:50:00.452Z,20.74
2022-11-15T13:52:30.126Z,20.74
2022-11-15T13:55:00.407Z,20.73
2022-11-15T13:57:30.147Z,20.72
2022-11-15T13:59:58.565Z,20.72
2022-11-15T14:02:33.399Z,20.71
2022-11-15T14:05:14.902Z,20.70
2022-11-15T14:07:44.479Z,20.69
2022-11-15T14:10:18.766Z,20.67
2022-11-15T14:12:52.116Z,20.67
2022-11-15T14:15:35.825Z,20.66
2022-11-15T14:18:03.161Z,20.66
2022-11-15T14:20:31.983Z,20.67
2022-11-15T14:23:17.432Z,20.65
2022-11-15T14:25:53.112Z,20.62
2022-11-15T14:28:19.661Z,20.63
2022-11-15T14:30:51.392Z,20.64
2022-11-15T14:33:22.645Z,20.64
2022-11-15T14:35:49.494Z,20.63
2022-11-15T14:38:16.330Z,20.61
2022-11-15T14:40:43.490Z,20.60
2022-11-15T14:43:11.613Z,20.59
2022-11-15T14:45:38.696Z,20.58
2022-11-15T14:48:05.747Z,20.57
2022-11-15T14:50:33.141Z,20.57
2022-11-15T14:52:59.931Z,20.56
2022-11-15T14:55:26.532Z,20.55
2022-11-15T14:57:56.000Z,20.53
2022-11-15T15:00:23.314Z,20.54
2022-11-15T15:02:51.606Z,20.52
2022-11-15T15:05:20.253Z,20.51
2022-11-15T15:07:47.712Z,20.50
2022-11-15T15:10:39.076Z,20.49
2022-11-15T15:13:02.284Z,20.48
2022-11-15T15:15:36.418Z,20.49
2022-11-15T15:18:03.824Z,20.46
2022-11-15T15:20:30.655Z,20.45
2022-11-15T15:22:57.789Z,20.45
2022-11-15T15:25:33.131Z,20.45
2022-11-15T15:28:00.197Z,20.44
2022-11-15T15:30:27.966Z,20.44
2022-11-15T15:32:55.204Z,20.42
2022-11-15T15:35:21.790Z,20.41
2022-11-15T15:37:49.494Z,20.40
2022-11-15T15:40:21.301Z,20.38
2022-11-15T15:42:54.130Z,20.37
2022-11-15T15:45:20.880Z,20.37
2022-11-15T15:47:47.515Z,20.36
2022-11-15T15:50:14.426Z,20.34
2022-11-15T15:52:41.141Z,20.34
2022-11-15T15:55:08.078Z,20.34
2022-11-15T15:57:34.810Z,20.32
2022-11-15T16:00:01.575Z,20.32
2022-11-15T16:02:28.195Z,20.30
2022-11-15T16:04:54.809Z,20.30
2022-11-15T16:07:29.382Z,20.30
2022-11-15T16:10:02.362Z,20.29
2022-11-15T16:12:30.079Z,20.29
2022-11-15T16:14:56.844Z,20.27
2022-11-15T16:17:25.893Z,20.27
2022-11-15T16:19:54.565Z,20.25
2022-11-15T16:22:21.456Z,20.23
2022-11-15T16:24:48.082Z,20.23
2022-11-15T16:27:18.495Z,20.24
2022-11-15T16:29:45.367Z,20.22
2022-11-15T16:32:12.425Z,20.21
2022-11-15T16:34:42.803Z,20.19
2022-11-15T16:37:22.702Z,20.18
2022-11-15T16:39:49.460Z,20.19
2022-11-15T16:42:16.218Z,20.17
2022-11-15T16:44:42.931Z,20.16
2022-11-15T16:47:23.078Z,20.16
2022-11-15T16:49:49.835Z,20.15
2022-11-15T16:52:21.219Z,20.14
2022-11-15T16:54:48.230Z,20.13
2022-11-15T16:57:14.827Z,20.13
2022-11-15T16:59:41.450Z,20.12
2022-11-15T17:02:12.700Z,20.12
2022-11-15T17:04:39.392Z,20.11
2022-11-15T17:07:06.131Z,20.10
2022-11-15T17:09:33.350Z,20.11
2022-11-15T17:11:59.973Z,20.10
2022-11-15T17:14:26.561Z,20.10
2022-11-15T17:16:54.490Z,20.13
2022-11-15T17:19:21.814Z,20.17
2022-11-15T17:21:51.524Z,20.20
2022-11-15T17:24:18.224Z,20.22
2022-11-15T17:26:44.847Z,20.27
2022-11-15T17:29:11.610Z,20.29
2022-11-15T17:31:38.698Z,20.31
2022-11-15T17:34:06.384Z,20.34
2022-11-15T17:36:33.192Z,20.39
2022-11-15T17:39:01.454Z,20.42
2022-11-15T17:41:29.334Z,20.45
2022-11-15T17:43:58.141Z,20.50
2022-11-15T17:46:24.788Z,20.52
2022-11-15T17:48:51.697Z,20.57
2022-11-15T17:51:19.360Z,20.60
2022-11-15T17:53:47.659Z,20.65
2022-11-15T17:56:15.534Z,20.69
2022-11-15T17:58:42.381Z,20.73
2022-11-15T18:01:10.540Z,20.76
2022-11-15T18:03:37.566Z,20.80
2022-11-15T18:06:05.281Z,20.84
2022-11-15T18:08:32.142Z,20.88
2022-11-15T18:11:04.608Z,20.90
2022-11-15T18:13:31.733Z,20.93
2022-11-15T18:16:02.770Z,20.98
2022-11-15T18:18:30.587Z,21.00
2022-11-15T18:21:03.899Z,21.04
2022-11-15T18:23:32.815Z,21.07
2022-11-15T18:26:00.335Z,21.07
2022-11-15T18:28:34.496Z,21.10
2022-11-15T18:31:01.885Z,21.10
2022-11-15T18:33:28.853Z,21.13
2022-11-15T18:36:00.256Z,21.13
2022-11-15T18:38:31.036Z,21.14
2022-11-15T18:40:58.981Z,21.15
2022-11-15T18:43:26.256Z,21.17
2022-11-15T18:45:53.146Z,21.17
2022-11-15T18:48:19.852Z,21.20
2022-11-15T18:50:46.969Z,21.21
2022-11-15T18:53:13.639Z,21.26
2022-11-15T18:55:40.267Z,21.28
2022-11-15T18:58:06.864Z,21.29
2022-11-15T19:00:33.560Z,21.34
2022-11-15T19:03:00.341Z,21.38
2022-11-15T19:05:27.031Z,21.40
2022-11-15T19:07:55.850Z,21.45
2022-11-15T19:13:05.776Z,21.53
2022-11-15T19:15:51.842Z,21.56
2022-11-15T19:18:18.669Z,21.60
2022-11-15T19:20:45.374Z,21.62
2022-11-15T19:23:12.177Z,21.65
2022-11-15T19:25:39.232Z,21.67
2022-11-15T19:28:05.960Z,21.69
2022-11-15T19:30:32.558Z,21.69
2022-11-15T19:33:11.546Z,21.72
2022-11-15T19:35:38.436Z,21.73
2022-11-15T19:38:06.006Z,21.74
2022-11-15T19:40:36.247Z,21.77
2022-11-15T19:43:03.711Z,21.77
2022-11-15T19:45:30.605Z,21.77
2022-11-15T19:47:58.915Z,21.79
2022-11-15T19:50:25.849Z,21.79
2022-11-15T19:52:56.210Z,21.78
2022-11-15T19:55:22.965Z,21.80
2022-11-15T19:57:49.735Z,21.80
2022-11-15T20:00:16.482Z,21.81
2022-11-15T20:02:43.144Z,21.79
2022-11-15T20:05:13.001Z,21.79
2022-11-15T20:07:43.780Z,21.79
2022-11-15T20:10:10.524Z,21.78
2022-11-15T20:12:37.231Z,21.78
2022-11-15T20:15:04.015Z,21.77
2022-11-15T20:17:37.683Z,21.79
2022-11-15T20:20:04.475Z,21.77
2022-11-15T20:22:31.129Z,21.78
2022-11-15T20:24:57.783Z,21.63
2022-11-15T20:27:24.953Z,21.61
2022-11-15T20:29:52.082Z,21.65
2022-11-15T20:32:18.918Z,21.65
2022-11-15T20:34:51.442Z,21.65
2022-11-15T20:37:20.749Z,21.64
2022-11-15T20:39:47.507Z,21.62
2022-11-15T20:42:19.422Z,21.61
2022-11-15T20:44:45.996Z,21.63
2022-11-15T20:47:12.662Z,21.65
2022-11-15T20:49:39.231Z,21.63
2022-11-15T20:52:05.861Z,21.62
2022-11-15T20:54:32.448Z,21.61
2022-11-15T20:56:59.017Z,21.61
2022-11-15T20:59:25.582Z,21.60
2022-11-15T21:05:05.586Z,21.56
2022-11-15T21:07:32.262Z,21.52
2022-11-15T21:10:17.469Z,21.49
2022-11-15T21:12:49.341Z,21.52
2022-11-15T21:15:15.987Z,21.51
2022-11-15T21:17:42.655Z,21.42
2022-11-15T21:20:09.625Z,21.44
2022-11-15T21:22:36.232Z,21.44
2022-11-15T21:25:02.872Z,21.42
2022-11-15T21:27:29.666Z,21.35
2022-11-15T21:29:56.432Z,21.34
2022-11-15T21:32:25.310Z,21.35
2022-11-15T21:34:51.906Z,21.35
2022-11-15T21:37:18.513Z,21.34
2022-11-15T21:39:45.270Z,21.30
2022-11-15T21:42:11.912Z,21.31
2022-11-15T21:44:38.618Z,21.30
2022-11-15T21:47:05.331Z,21.31
2022-11-15T21:49:31.925Z,21.32
2022-11-15T21:51:59.870Z,21.32
2022-11-15T21:54:26.528Z,21.29
2022-11-15T21:56:53.131Z,21.30
2022-11-15T21:59:20.008Z,21.31
2022-11-15T22:02:04.986Z,21.30
2022-11-15T22:04:31.554Z,21.30
2022-11-15T22:06:58.261Z,21.29
2022-11-15T22:09:25.231Z,21.28
2022-11-15T22:11:51.840Z,21.27
2022-11-15T22:14:18.427Z,21.27
2022-11-15T22:16:45.048Z,21.27
2022-11-15T22:19:11.824Z,21.24
2022-11-15T22:21:40.005Z,21.24
2022-11-15T22:24:07.008Z,21.23
2022-11-15T22:26:33.748Z,21.22
2022-11-15T22:29:00.450Z,21.21
2022-11-15T22:31:27.105Z,21.18
2022-11-15T22:33:53.706Z,21.18
2022-11-15T22:36:20.394Z,21.17
2022-11-15T22:38:47.053Z,21.17
2022-11-15T22:41:13.656Z,21.16
2022-11-15T22:43:40.282Z,21.15
2022-11-15T22:46:06.971Z,21.15
2022-11-15T22:48:35.005Z,21.15
2022-11-15T22:51:02.295Z,21.16
2022-11-15T22:53:29.486Z,21.18
2022-11-15T22:55:57.154Z,21.21
2022-11-15T22:58:24.873Z,21.24
2022-11-15T23:00:52.141Z,21.30
2022-11-15T23:03:19.809Z,21.32
2022-11-15T23:05:46.832Z,21.36
2022-11-15T23:08:13.878Z,21.39
2022-11-15T23:10:59.099Z,21.41
2022-11-15T23:13:27.285Z,21.44
2022-11-15T23:16:20.325Z,21.46
2022-11-15T23:18:47.243Z,21.50
2022-11-15T23:21:15.493Z,21.52
2022-11-15T23:23:42.545Z,21.55
2022-11-15T23:26:09.292Z,21.57
2022-11-15T23:28:36.294Z,21.59
2022-11-15T23:31:22.685Z,21.60
2022-11-15T23:33:58.186Z,21.62
2022-11-15T23:36:28.626Z,21.63
2022-11-15T23:38:55.624Z,21.65
2022-11-15T23:41:23.912Z,21.67
2022-11-15T23:43:51.003Z,21.69
2022-11-15T23:46:17.854Z,21.70
2022-11-15T23:48:44.628Z,21.69
2022-11-15T23:51:11.442Z,21.71
2022-11-15T23:53:38.109Z,21.71
2022-11-15T23:56:06.365Z,21.72
2022-11-15T23:58:33.378Z,21.73
